createdAt,value
2019-02-20T00:01:51.400Z,17.13
2019-02-20T00:04:18.053Z,17.15
2019-02-20T00:06:46.764Z,17.10
2019-02-20T00:09:13.431Z,17.11
2019-02-20T00:11:40.083Z,17.17
2019-02-20T00:14:06.755Z,17.12
2019-02-20T00:16:33.422Z,17.12
2019-02-20T00:19:00.077Z,17.15
2019-02-20T00:21:26.734Z,17.09
2019-02-20T00:23:53.373Z,17.09
2019-02-20T00:26:20.025Z,17.09
2019-02-20T00:28:46.678Z,17.06
2019-02-20T00:31:13.332Z,17.08
2019-02-20T00:33:40.021Z,17.09
2019-02-20T00:36:06.670Z,17.12
2019-02-20T00:38:33.331Z,17.09
2019-02-20T00:40:59.985Z,17.10
2019-02-20T00:43:26.652Z,17.15
2019-02-20T00:45:53.303Z,17.10
2019-02-20T00:48:19.969Z,17.12
2019-02-20T00:50:46.642Z,17.07
2019-02-20T00:53:13.301Z,17.11
2019-02-20T00:55:40.016Z,17.12
2019-02-20T00:58:06.684Z,17.10
2019-02-20T01:00:33.362Z,17.08
2019-02-20T01:03:00.114Z,17.12
2019-02-20T01:05:26.773Z,17.13
2019-02-20T01:07:53.451Z,17.08
2019-02-20T01:10:20.259Z,17.05
2019-02-20T01:12:46.924Z,17.08
2019-02-20T01:15:13.601Z,17.08
2019-02-20T01:17:40.268Z,17.08
2019-02-20T01:20:06.926Z,17.09
2019-02-20T01:22:33.597Z,17.06
2019-02-20T01:25:00.430Z,17.05
2019-02-20T01:27:26.918Z,17.07
2019-02-20T01:29:53.578Z,17.05
2019-02-20T01:32:20.241Z,17.04
2019-02-20T01:34:46.886Z,17.01
2019-02-20T01:37:13.548Z,17.07
2019-02-20T01:39:40.221Z,17.09
2019-02-20T01:42:06.889Z,17.09
2019-02-20T01:44:33.553Z,17.06
2019-02-20T01:47:00.293Z,17.01
2019-02-20T01:49:26.965Z,17.05
2019-02-20T01:51:53.624Z,17.06
2019-02-20T01:54:20.270Z,17.09
2019-02-20T01:56:46.943Z,17.09
2019-02-20T01:59:13.665Z,17.07
2019-02-20T02:01:40.250Z,17.05
2019-02-20T02:04:06.917Z,17.08
2019-02-20T02:06:33.639Z,17.07
2019-02-20T02:09:00.302Z,17.01
2019-02-20T02:11:26.952Z,17.04
2019-02-20T02:13:53.615Z,17.08
2019-02-20T02:16:20.291Z,17.07
2019-02-20T02:18:46.945Z,17.08
2019-02-20T02:21:13.605Z,17.05
2019-02-20T02:23:40.271Z,17.03
2019-02-20T02:26:10.934Z,17.01
2019-02-20T02:28:33.707Z,17.05
2019-02-20T02:31:00.367Z,17.10
2019-02-20T02:33:28.380Z,17.07
2019-02-20T02:35:53.688Z,17.07
2019-02-20T02:38:20.354Z,17.08
2019-02-20T02:40:47.017Z,17.04
2019-02-20T02:43:13.729Z,17.08
2019-02-20T02:45:40.389Z,17.10
2019-02-20T02:48:07.059Z,17.08
2019-02-20T02:50:33.752Z,17.10
2019-02-20T02:53:00.429Z,17.09
2019-02-20T02:55:27.095Z,17.10
2019-02-20T02:57:53.850Z,17.07
2019-02-20T03:00:20.547Z,17.06
2019-02-20T03:02:47.163Z,17.08
2019-02-20T03:05:13.817Z,17.10
2019-02-20T03:07:40.524Z,17.08
2019-02-20T03:10:07.173Z,17.14
2019-02-20T03:12:33.839Z,17.08
2019-02-20T03:15:00.524Z,17.10
2019-02-20T03:17:27.211Z,17.13
2019-02-20T03:19:53.860Z,17.13
2019-02-20T03:22:20.523Z,17.13
2019-02-20T03:24:47.190Z,17.15
2019-02-20T03:27:13.901Z,17.15
2019-02-20T03:29:40.560Z,17.16
2019-02-20T03:32:07.239Z,17.12
2019-02-20T03:34:33.912Z,17.14
2019-02-20T03:37:00.575Z,17.13
2019-02-20T03:39:27.240Z,17.15
2019-02-20T03:41:53.901Z,17.12
2019-02-20T03:44:20.608Z,17.16
2019-02-20T03:46:47.286Z,17.15
2019-02-20T03:49:13.989Z,17.12
2019-02-20T03:51:40.699Z,17.15
2019-02-20T03:54:07.359Z,17.12
2019-02-20T03:56:34.007Z,17.14
2019-02-20T03:59:00.669Z,17.09
2019-02-20T04:01:27.368Z,17.05
2019-02-20T04:03:54.016Z,17.07
2019-02-20T04:06:20.668Z,17.44
2019-02-20T04:08:47.334Z,17.83
2019-02-20T04:11:13.991Z,18.30
2019-02-20T04:13:40.659Z,18.39
2019-02-20T04:16:07.306Z,18.46
2019-02-20T04:18:34.004Z,18.66
2019-02-20T04:21:00.713Z,18.49
2019-02-20T04:23:27.387Z,18.75
2019-02-20T04:25:54.048Z,18.87
2019-02-20T04:28:20.803Z,19.02
2019-02-20T04:30:47.465Z,19.04
2019-02-20T04:33:14.158Z,18.78
2019-02-20T04:35:40.839Z,18.26
2019-02-20T04:38:07.497Z,17.95
2019-02-20T04:40:34.183Z,17.79
2019-02-20T04:43:00.838Z,17.74
2019-02-20T04:45:27.491Z,17.58
2019-02-20T04:47:54.147Z,17.56
2019-02-20T04:50:20.851Z,17.51
2019-02-20T04:52:47.519Z,17.46
2019-02-20T04:55:14.176Z,17.45
2019-02-20T04:57:40.833Z,17.41
2019-02-20T05:00:07.476Z,17.43
2019-02-20T05:02:34.140Z,17.94
2019-02-20T05:05:00.807Z,17.51
2019-02-20T05:07:27.465Z,17.53
2019-02-20T05:09:54.127Z,17.52
2019-02-20T05:12:20.842Z,17.46
2019-02-20T05:14:47.503Z,17.53
2019-02-20T05:17:14.196Z,17.50
2019-02-20T05:19:40.860Z,17.65
2019-02-20T05:22:07.529Z,17.76
2019-02-20T05:24:34.186Z,17.65
2019-02-20T05:27:00.838Z,17.59
2019-02-20T05:29:27.521Z,17.64
2019-02-20T05:31:54.178Z,17.72
2019-02-20T05:34:20.973Z,17.66
2019-02-20T05:36:47.501Z,17.66
2019-02-20T05:39:14.185Z,17.62
2019-02-20T05:41:40.840Z,17.59
2019-02-20T05:44:07.518Z,17.56
2019-02-20T05:46:34.233Z,17.42
2019-02-20T05:49:00.924Z,17.27
2019-02-20T05:51:27.582Z,17.17
2019-02-20T05:53:54.236Z,17.14
2019-02-20T05:56:20.913Z,17.46
2019-02-20T05:58:49.703Z,17.53
2019-02-20T06:01:14.237Z,17.40
2019-02-20T06:03:40.897Z,17.32
2019-02-20T06:06:07.552Z,17.39
2019-02-20T06:08:34.219Z,16.59
2019-02-20T06:11:00.888Z,17.31
2019-02-20T06:13:27.549Z,17.28
2019-02-20T06:15:54.273Z,17.36
2019-02-20T06:20:47.289Z,17.26
2019-02-20T06:23:13.971Z,17.25
2019-02-20T06:25:40.659Z,17.22
2019-02-20T06:28:07.320Z,17.18
2019-02-20T06:30:33.987Z,17.17
2019-02-20T06:33:00.835Z,17.17
2019-02-20T06:35:27.474Z,17.21
2019-02-20T06:37:54.115Z,17.22
2019-02-20T06:40:20.791Z,17.46
2019-02-20T06:42:47.465Z,17.42
2019-02-20T06:45:14.127Z,17.33
2019-02-20T06:47:40.798Z,17.27
2019-02-20T06:50:07.506Z,17.28
2019-02-20T06:52:34.165Z,17.39
2019-02-20T06:55:00.875Z,17.64
2019-02-20T06:57:27.538Z,17.70
2019-02-20T06:59:54.193Z,17.57
2019-02-20T07:02:20.883Z,17.70
2019-02-20T07:04:47.721Z,17.74
2019-02-20T07:07:14.425Z,17.88
2019-02-20T07:09:41.086Z,17.72
2019-02-20T07:12:07.766Z,17.70
2019-02-20T07:14:34.408Z,17.83
2019-02-20T07:17:01.110Z,17.82
2019-02-20T07:19:27.782Z,17.95
2019-02-20T07:21:54.471Z,17.92
2019-02-20T07:24:21.235Z,17.87
2019-02-20T07:26:47.975Z,17.82
2019-02-20T07:29:14.644Z,17.72
2019-02-20T07:31:41.335Z,17.59
2019-02-20T07:34:08.076Z,17.63
2019-02-20T07:36:34.734Z,17.73
2019-02-20T07:39:01.436Z,17.53
2019-02-20T07:41:28.109Z,17.68
2019-02-20T07:43:54.951Z,17.87
2019-02-20T07:46:22.818Z,18.12
2019-02-20T07:48:49.513Z,18.04
2019-02-20T07:51:16.156Z,18.31
2019-02-20T07:53:42.815Z,18.25
2019-02-20T07:56:09.483Z,18.40
2019-02-20T07:58:36.131Z,18.19
2019-02-20T08:01:02.812Z,18.23
2019-02-20T08:03:29.756Z,18.24
2019-02-20T08:05:56.195Z,18.25
2019-02-20T08:08:22.867Z,18.37
2019-02-20T08:10:49.518Z,18.31
2019-02-20T08:13:16.200Z,18.27
2019-02-20T08:15:42.854Z,18.29
2019-02-20T08:18:09.561Z,18.58
2019-02-20T08:20:36.257Z,18.39
2019-02-20T08:23:02.911Z,18.40
2019-02-20T08:25:29.578Z,18.29
2019-02-20T08:27:56.304Z,18.36
2019-02-20T08:30:23.100Z,18.33
2019-02-20T08:32:49.782Z,18.34
2019-02-20T08:35:16.458Z,18.48
2019-02-20T08:37:43.142Z,18.65
2019-02-20T08:40:09.856Z,18.54
2019-02-20T08:42:36.547Z,18.77
2019-02-20T08:45:03.343Z,18.69
2019-02-20T08:47:30.030Z,18.80
2019-02-20T08:49:56.852Z,18.83
2019-02-20T08:52:23.500Z,18.99
2019-02-20T08:54:50.165Z,18.96
2019-02-20T08:57:16.951Z,19.16
2019-02-20T08:59:43.776Z,18.87
2019-02-20T09:02:10.458Z,19.00
2019-02-20T09:04:37.160Z,18.96
2019-02-20T09:07:03.861Z,19.02
2019-02-20T09:09:30.522Z,19.04
2019-02-20T09:11:57.256Z,19.05
2019-02-20T09:14:23.952Z,19.18
2019-02-20T09:16:50.648Z,19.22
2019-02-20T09:19:17.310Z,19.30
2019-02-20T09:21:45.106Z,19.36
2019-02-20T09:24:11.764Z,19.25
2019-02-20T09:26:38.484Z,19.33
2019-02-20T09:29:05.153Z,19.13
2019-02-20T09:31:31.851Z,19.34
2019-02-20T09:33:58.547Z,19.35
2019-02-20T09:36:25.226Z,19.36
2019-02-20T09:38:51.930Z,19.30
2019-02-20T09:41:18.631Z,19.23
2019-02-20T09:43:45.295Z,19.20
2019-02-20T09:46:12.002Z,19.26
2019-02-20T09:48:38.676Z,19.20
2019-02-20T09:51:05.370Z,19.04
2019-02-20T09:53:32.060Z,18.87
2019-02-20T09:56:01.276Z,19.13
2019-02-20T09:58:27.997Z,18.88
2019-02-20T10:00:54.675Z,18.99
2019-02-20T10:03:23.514Z,18.76
2019-02-20T10:05:48.091Z,18.56
2019-02-20T10:08:14.753Z,18.54
2019-02-20T10:10:41.523Z,18.63
2019-02-20T10:13:10.950Z,18.43
2019-02-20T10:15:34.875Z,18.43
2019-02-20T10:18:01.581Z,19.04
2019-02-20T10:20:28.272Z,18.80
2019-02-20T10:22:54.976Z,18.64
2019-02-20T10:25:21.659Z,18.89
2019-02-20T10:27:48.342Z,18.83
2019-02-20T10:30:15.074Z,18.61
2019-02-20T10:32:41.786Z,18.35
2019-02-20T10:35:08.594Z,18.35
2019-02-20T10:37:35.253Z,18.45
2019-02-20T10:40:01.926Z,19.06
2019-02-20T10:42:31.877Z,18.68
2019-02-20T10:44:58.555Z,18.73
2019-02-20T10:47:25.212Z,18.60
2019-02-20T10:49:51.909Z,18.60
2019-02-20T10:52:18.711Z,18.52
2019-02-20T10:54:45.656Z,18.37
2019-02-20T10:57:12.044Z,18.64
2019-02-20T10:59:38.717Z,18.64
2019-02-20T11:02:05.391Z,18.32
2019-02-20T11:04:33.258Z,18.42
2019-02-20T11:06:59.985Z,18.94
2019-02-20T11:09:26.671Z,18.60
2019-02-20T11:11:54.520Z,18.76
2019-02-20T11:14:20.075Z,18.65
2019-02-20T11:16:46.719Z,18.78
2019-02-20T11:19:13.412Z,18.80
2019-02-20T11:21:40.116Z,18.39
2019-02-20T11:24:06.792Z,18.68
2019-02-20T11:26:33.460Z,18.29
2019-02-20T11:29:00.126Z,18.36
2019-02-20T11:31:26.836Z,18.11
2019-02-20T11:33:53.734Z,18.19
2019-02-20T11:36:20.421Z,18.20
2019-02-20T11:38:47.092Z,18.32
2019-02-20T11:41:13.845Z,18.14
2019-02-20T11:43:40.599Z,17.73
2019-02-20T11:46:07.433Z,17.69
2019-02-20T11:48:34.125Z,17.65
2019-02-20T11:51:00.860Z,18.05
2019-02-20T11:53:27.656Z,17.66
2019-02-20T11:55:54.312Z,17.49
2019-02-20T11:58:21.015Z,17.52
2019-02-20T12:00:47.679Z,17.42
2019-02-20T12:03:14.402Z,17.51
2019-02-20T12:05:41.153Z,17.73
2019-02-20T12:08:07.850Z,17.42
2019-02-20T12:10:34.543Z,17.54
2019-02-20T12:13:01.233Z,17.30
2019-02-20T12:15:27.941Z,16.94
2019-02-20T12:17:54.647Z,17.30
2019-02-20T12:20:21.315Z,17.36
2019-02-20T12:22:47.972Z,17.23
2019-02-20T12:25:14.656Z,17.35
2019-02-20T12:27:41.416Z,17.08
2019-02-20T12:30:08.129Z,17.45
2019-02-20T12:32:34.860Z,17.45
2019-02-20T12:35:01.553Z,17.45
2019-02-20T12:37:28.308Z,17.64
2019-02-20T12:39:55.201Z,17.65
2019-02-20T12:42:21.924Z,17.55
2019-02-20T12:44:48.628Z,17.36
2019-02-20T12:47:15.306Z,17.30
2019-02-20T12:49:41.982Z,17.39
2019-02-20T12:52:08.706Z,17.16
2019-02-20T12:54:35.370Z,16.98
2019-02-20T12:57:03.133Z,17.33
2019-02-20T12:59:29.932Z,17.69
2019-02-20T13:01:56.628Z,17.48
2019-02-20T13:04:24.575Z,17.10
2019-02-20T13:06:59.180Z,17.09
2019-02-20T13:09:16.681Z,16.94
2019-02-20T13:11:48.851Z,16.90
2019-02-20T13:14:16.631Z,17.24
2019-02-20T13:16:43.336Z,17.16
2019-02-20T13:19:10.030Z,16.66
2019-02-20T13:21:36.709Z,16.57
2019-02-20T13:24:03.377Z,16.62
2019-02-20T13:26:30.091Z,17.07
2019-02-20T13:28:56.850Z,16.83
2019-02-20T13:31:23.610Z,17.34
2019-02-20T13:33:50.426Z,17.53
2019-02-20T13:36:17.147Z,17.15
2019-02-20T13:38:43.908Z,16.96
2019-02-20T13:41:12.446Z,17.08
2019-02-20T13:43:37.238Z,17.20
2019-02-20T13:46:03.926Z,17.23
2019-02-20T13:48:30.672Z,17.20
2019-02-20T13:50:57.341Z,16.90
2019-02-20T13:53:24.029Z,17.25
2019-02-20T13:55:50.734Z,16.84
2019-02-20T13:58:17.756Z,17.29
2019-02-20T14:00:44.062Z,17.18
2019-02-20T14:03:10.750Z,17.14
2019-02-20T14:05:37.429Z,17.52
2019-02-20T14:08:04.108Z,17.12
2019-02-20T14:10:30.763Z,17.22
2019-02-20T14:12:57.489Z,17.32
2019-02-20T14:15:24.154Z,17.35
2019-02-20T14:17:50.830Z,17.24
2019-02-20T14:20:17.540Z,17.47
2019-02-20T14:22:45.791Z,17.38
2019-02-20T14:25:10.931Z,17.43
2019-02-20T14:27:37.693Z,17.41
2019-02-20T14:30:04.354Z,17.06
2019-02-20T14:32:31.165Z,16.85
2019-02-20T14:34:57.854Z,17.36
2019-02-20T14:37:24.579Z,17.29
2019-02-20T14:39:51.234Z,17.39
2019-02-20T14:42:18.056Z,17.48
2019-02-20T14:44:44.717Z,17.20
2019-02-20T14:47:11.517Z,17.29
2019-02-20T14:49:38.212Z,17.22
2019-02-20T14:52:05.392Z,17.31
2019-02-20T14:54:32.060Z,17.48
2019-02-20T14:56:58.813Z,17.62
2019-02-20T14:59:25.510Z,17.52
2019-02-20T15:01:52.365Z,17.61
2019-02-20T15:04:19.018Z,17.35
2019-02-20T15:06:45.717Z,17.48
2019-02-20T15:09:12.373Z,17.44
2019-02-20T15:11:39.109Z,17.47
2019-02-20T15:14:05.785Z,17.29
2019-02-20T15:16:32.506Z,17.52
2019-02-20T15:18:59.177Z,17.56
2019-02-20T15:21:25.882Z,17.67
2019-02-20T15:23:52.542Z,17.69
2019-02-20T15:26:19.191Z,17.78
2019-02-20T15:28:45.954Z,17.83
2019-02-20T15:31:12.599Z,17.86
2019-02-20T15:33:39.256Z,17.81
2019-02-20T15:36:06.065Z,17.95
2019-02-20T15:38:32.838Z,17.77
2019-02-20T15:40:59.508Z,17.61
2019-02-20T15:43:26.263Z,17.99
2019-02-20T15:45:53.069Z,17.80
2019-02-20T15:48:23.254Z,18.04
2019-02-20T15:50:47.684Z,18.07
2019-02-20T15:53:14.506Z,18.00
2019-02-20T15:55:41.291Z,18.00
2019-02-20T15:58:07.938Z,17.96
2019-02-20T16:00:34.571Z,17.94
2019-02-20T16:03:01.236Z,17.91
2019-02-20T16:05:27.941Z,17.90
2019-02-20T16:07:54.613Z,17.89
2019-02-20T16:10:21.679Z,17.86
2019-02-20T16:12:47.939Z,17.88
2019-02-20T16:15:14.818Z,17.84
2019-02-20T16:17:41.319Z,17.80
2019-02-20T16:20:08.005Z,17.74
2019-02-20T16:22:34.655Z,17.74
2019-02-20T16:25:01.325Z,17.79
2019-02-20T16:27:27.990Z,17.86
2019-02-20T16:29:54.698Z,17.82
2019-02-20T16:32:21.352Z,17.82
2019-02-20T16:34:48.030Z,17.87
2019-02-20T16:37:14.699Z,17.87
2019-02-20T16:39:41.409Z,17.79
2019-02-20T16:42:08.154Z,17.89
2019-02-20T16:44:34.808Z,17.87
2019-02-20T16:47:01.480Z,17.90
2019-02-20T16:49:28.163Z,17.96
2019-02-20T16:51:54.848Z,17.96
2019-02-20T16:54:21.695Z,17.93
2019-02-20T16:56:48.348Z,18.03
2019-02-20T16:59:15.022Z,17.95
2019-02-20T17:01:41.722Z,17.92
2019-02-20T17:04:08.398Z,18.02
2019-02-20T17:06:35.106Z,18.03
2019-02-20T17:09:01.759Z,18.01
2019-02-20T17:11:28.461Z,17.97
2019-02-20T17:13:55.159Z,17.92
2019-02-20T17:16:21.854Z,17.90
2019-02-20T17:18:48.512Z,17.91
2019-02-20T17:21:15.155Z,17.89
2019-02-20T17:23:41.862Z,17.89
2019-02-20T17:26:08.516Z,17.90
2019-02-20T17:28:35.206Z,17.89
2019-02-20T17:31:01.882Z,17.89
2019-02-20T17:33:28.543Z,17.84
2019-02-20T17:35:55.234Z,17.84
2019-02-20T17:38:21.893Z,17.83
2019-02-20T17:40:48.603Z,17.85
2019-02-20T17:43:15.259Z,17.81
2019-02-20T17:45:41.916Z,17.83
2019-02-20T17:48:08.623Z,17.81
2019-02-20T17:50:35.290Z,17.80
2019-02-20T17:53:01.943Z,17.78
2019-02-20T17:55:28.645Z,17.83
2019-02-20T17:57:55.354Z,17.80
2019-02-20T18:00:22.031Z,17.80
2019-02-20T18:02:48.680Z,17.77
2019-02-20T18:05:15.359Z,17.78
2019-02-20T18:07:48.786Z,17.76
2019-02-20T18:10:08.814Z,17.75
2019-02-20T18:12:35.484Z,17.74
2019-02-20T18:15:02.123Z,17.79
2019-02-20T18:17:28.786Z,17.75
2019-02-20T18:19:55.437Z,17.73
2019-02-20T18:22:22.190Z,17.69
2019-02-20T18:24:48.842Z,17.75
2019-02-20T18:27:15.491Z,17.72
2019-02-20T18:29:42.167Z,17.73
2019-02-20T18:32:08.828Z,17.75
2019-02-20T18:34:35.480Z,17.74
2019-02-20T18:37:02.200Z,17.70
2019-02-20T18:39:28.851Z,17.74
2019-02-20T18:41:55.497Z,17.70
2019-02-20T18:44:22.138Z,17.71
2019-02-20T18:46:48.801Z,17.69
2019-02-20T18:49:15.478Z,17.71
2019-02-20T18:51:42.122Z,17.71
2019-02-20T18:54:08.787Z,17.68
2019-02-20T18:56:35.437Z,17.69
2019-02-20T18:59:02.141Z,17.70
2019-02-20T19:01:28.766Z,17.72
2019-02-20T19:03:56.754Z,17.69
2019-02-20T19:06:22.077Z,17.69
2019-02-20T19:08:48.735Z,17.71
2019-02-20T19:11:15.403Z,17.70
2019-02-20T19:13:42.185Z,17.68
2019-02-20T19:16:08.859Z,17.69
2019-02-20T19:18:35.533Z,17.73
2019-02-20T19:21:02.174Z,17.76
2019-02-20T19:23:28.803Z,17.79
2019-02-20T19:25:55.498Z,17.84
2019-02-20T19:28:22.130Z,17.83
2019-02-20T19:30:48.789Z,17.81
2019-02-20T19:33:15.484Z,17.83
2019-02-20T19:35:42.089Z,17.82
2019-02-20T19:38:09.554Z,17.83
2019-02-20T19:40:35.421Z,17.81
2019-02-20T19:43:02.083Z,17.80
2019-02-20T19:45:28.728Z,17.80
2019-02-20T19:47:55.390Z,17.78
2019-02-20T19:50:22.103Z,17.79
2019-02-20T19:52:48.703Z,17.81
2019-02-20T19:55:15.359Z,17.81
2019-02-20T19:57:42.150Z,17.79
2019-02-20T20:00:08.796Z,17.78
2019-02-20T20:02:35.457Z,17.81
2019-02-20T20:05:02.125Z,17.75
2019-02-20T20:07:28.782Z,17.81
2019-02-20T20:09:55.431Z,17.76
2019-02-20T20:12:22.112Z,17.79
2019-02-20T20:14:48.766Z,17.77
2019-02-20T20:17:15.489Z,17.78
2019-02-20T20:19:42.079Z,17.83
2019-02-20T20:22:08.724Z,17.82
2019-02-20T20:24:35.412Z,17.77
2019-02-20T20:27:02.155Z,17.81
2019-02-20T20:29:28.899Z,17.74
2019-02-20T20:31:55.564Z,17.85
2019-02-20T20:34:22.203Z,17.77
2019-02-20T20:36:50.916Z,17.73
2019-02-20T20:39:17.508Z,17.98
2019-02-20T20:41:42.191Z,18.11
2019-02-20T20:44:08.857Z,18.12
2019-02-20T20:46:35.624Z,18.11
2019-02-20T20:49:02.294Z,18.10
2019-02-20T20:51:28.939Z,18.08
2019-02-20T20:53:56.316Z,18.07
2019-02-20T20:56:22.267Z,18.01
2019-02-20T20:58:48.967Z,18.02
2019-02-20T21:01:15.635Z,18.02
2019-02-20T21:03:42.301Z,18.06
2019-02-20T21:06:08.944Z,18.04
2019-02-20T21:08:35.612Z,18.02
2019-02-20T21:11:02.276Z,18.01
2019-02-20T21:13:29.051Z,18.02
2019-02-20T21:15:55.615Z,18.04
2019-02-20T21:18:22.290Z,18.05
2019-02-20T21:20:48.943Z,18.04
2019-02-20T21:23:15.612Z,18.03
2019-02-20T21:25:42.259Z,18.04
2019-02-20T21:28:08.935Z,18.05
2019-02-20T21:30:35.598Z,18.08
2019-02-20T21:33:02.280Z,18.10
2019-02-20T21:35:28.944Z,18.09
2019-02-20T21:37:55.593Z,18.12
2019-02-20T21:40:22.365Z,18.11
2019-02-20T21:42:49.014Z,18.14
2019-02-20T21:45:15.666Z,18.10
2019-02-20T21:47:42.319Z,18.12
2019-02-20T21:50:08.993Z,18.13
2019-02-20T21:52:35.675Z,18.13
2019-02-20T21:55:02.348Z,18.12
2019-02-20T21:57:29.836Z,18.09
2019-02-20T21:59:56.481Z,18.17
2019-02-20T22:02:23.142Z,18.17
2019-02-20T22:04:49.800Z,18.16
2019-02-20T22:07:16.459Z,18.19
2019-02-20T22:09:43.118Z,18.21
2019-02-20T22:12:09.814Z,18.20
2019-02-20T22:14:36.472Z,18.21
2019-02-20T22:17:03.134Z,18.23
2019-02-20T22:19:29.803Z,18.23
2019-02-20T22:21:56.465Z,18.22
2019-02-20T22:24:23.328Z,18.22
2019-02-20T22:26:49.784Z,18.26
2019-02-20T22:29:16.431Z,18.27
2019-02-20T22:31:43.101Z,18.27
2019-02-20T22:34:09.752Z,18.25
2019-02-20T22:36:36.422Z,18.28
2019-02-20T22:39:03.076Z,18.25
2019-02-20T22:41:29.738Z,18.25
2019-02-20T22:43:56.403Z,18.28
2019-02-20T22:46:23.080Z,18.28
2019-02-20T22:48:49.743Z,18.26
2019-02-20T22:51:16.394Z,18.27
2019-02-20T22:53:43.055Z,18.25
2019-02-20T22:56:09.750Z,18.26
2019-02-20T22:58:36.535Z,18.19
2019-02-20T23:01:03.189Z,18.21
2019-02-20T23:03:29.896Z,18.25
2019-02-20T23:05:56.564Z,18.23
2019-02-20T23:08:23.217Z,18.26
2019-02-20T23:10:49.877Z,18.24
2019-02-20T23:13:16.528Z,18.24
2019-02-20T23:15:43.408Z,18.21
2019-02-20T23:18:09.838Z,18.23
2019-02-20T23:20:36.536Z,18.25
2019-02-20T23:23:03.197Z,18.24
2019-02-20T23:25:29.848Z,18.24
2019-02-20T23:27:56.522Z,18.23
2019-02-20T23:30:23.172Z,18.23
2019-02-20T23:32:49.822Z,18.19
2019-02-20T23:35:16.489Z,18.20
2019-02-20T23:37:43.134Z,18.20
2019-02-20T23:40:09.811Z,18.22
2019-02-20T23:42:36.491Z,18.19
2019-02-20T23:45:03.166Z,18.22
2019-02-20T23:47:29.882Z,18.21
2019-02-20T23:49:56.704Z,18.19
2019-02-20T23:52:23.291Z,18.22
2019-02-20T23:54:49.969Z,18.23
2019-02-20T23:57:16.629Z,18.26
2019-02-20T23:59:43.285Z,18.23
